createdAt,value
2018-03-27T00:00:38.126Z,0.00
2018-03-27T00:01:02.643Z,0.00
2018-03-27T00:02:23.976Z,0.00
2018-03-27T00:03:03.010Z,0.00
2018-03-27T00:04:03.172Z,0.00
2018-03-27T00:05:03.332Z,0.00
2018-03-27T00:06:03.501Z,0.00
2018-03-27T00:07:03.697Z,0.00
2018-03-27T00:08:03.960Z,0.00
2018-03-27T00:09:39.622Z,0.00
2018-03-27T00:10:04.135Z,0.00
2018-03-27T00:11:19.127Z,0.00
2018-03-27T00:12:04.402Z,0.00
2018-03-27T00:13:04.565Z,0.00
2018-03-27T00:14:04.725Z,0.00
2018-03-27T00:15:04.886Z,0.00
2018-03-27T00:16:40.622Z,0.00
2018-03-27T00:17:05.273Z,0.00
2018-03-27T00:18:05.431Z,0.00
2018-03-27T00:19:05.592Z,0.00
2018-03-27T00:20:05.758Z,0.00
2018-03-27T00:21:05.920Z,0.00
2018-03-27T00:22:06.083Z,0.00
2018-03-27T00:23:06.253Z,0.00
2018-03-27T00:24:06.408Z,0.00
2018-03-27T00:25:06.577Z,0.00
2018-03-27T00:26:06.759Z,0.00
2018-03-27T00:27:06.896Z,0.00
2018-03-27T00:28:07.064Z,0.00
2018-03-27T00:29:07.221Z,0.00
2018-03-27T00:30:07.388Z,0.00
2018-03-27T00:31:07.548Z,0.00
2018-03-27T00:32:07.718Z,0.00
2018-03-27T00:33:07.874Z,0.00
2018-03-27T00:34:08.038Z,0.00
2018-03-27T00:35:08.199Z,0.00
2018-03-27T00:36:44.131Z,0.00
2018-03-27T00:37:08.512Z,0.00
2018-03-27T00:38:08.681Z,0.00
2018-03-27T00:39:08.844Z,0.00
2018-03-27T00:40:09.015Z,0.00
2018-03-27T00:41:09.212Z,0.00
2018-03-27T00:42:09.333Z,0.00
2018-03-27T00:43:09.500Z,0.00
2018-03-27T00:44:09.658Z,0.00
2018-03-27T00:45:09.821Z,0.00
2018-03-27T00:46:09.992Z,0.00
2018-03-27T00:47:10.156Z,0.00
2018-03-27T00:48:10.325Z,0.00
2018-03-27T00:49:10.483Z,0.00
2018-03-27T00:50:10.647Z,0.00
2018-03-27T00:51:10.811Z,0.00
2018-03-27T00:52:10.975Z,0.00
2018-03-27T00:53:11.141Z,0.00
2018-03-27T00:54:11.299Z,0.00
2018-03-27T00:55:11.474Z,0.00
2018-03-27T00:56:11.627Z,0.00
2018-03-27T00:57:11.799Z,0.00
2018-03-27T00:58:11.963Z,0.00
2018-03-27T00:59:12.126Z,0.00
2018-03-27T01:00:12.288Z,0.00
2018-03-27T01:01:12.458Z,0.00
2018-03-27T01:02:12.614Z,0.00
2018-03-27T01:03:12.778Z,0.00
2018-03-27T01:04:12.953Z,0.00
2018-03-27T01:05:13.119Z,0.00
2018-03-27T01:06:13.282Z,0.00
2018-03-27T01:07:13.439Z,0.00
2018-03-27T01:08:13.615Z,0.00
2018-03-27T01:09:41.856Z,0.00
2018-03-27T01:10:13.993Z,0.00
2018-03-27T01:11:14.156Z,0.00
2018-03-27T01:12:14.320Z,0.00
2018-03-27T01:13:14.481Z,0.00
2018-03-27T01:14:14.645Z,0.00
2018-03-27T01:15:14.804Z,0.00
2018-03-27T01:16:14.968Z,0.00
2018-03-27T01:17:15.133Z,0.00
2018-03-27T01:18:15.294Z,0.00
2018-03-27T01:19:15.454Z,0.00
2018-03-27T01:20:15.620Z,0.00
2018-03-27T01:21:15.772Z,0.00
2018-03-27T01:22:15.946Z,0.00
2018-03-27T01:23:16.105Z,0.00
2018-03-27T01:24:16.269Z,0.00
2018-03-27T01:25:16.418Z,0.00
2018-03-27T01:26:16.590Z,0.00
2018-03-27T01:27:16.742Z,0.00
2018-03-27T01:28:16.901Z,0.00
2018-03-27T01:29:17.059Z,0.00
2018-03-27T01:30:38.222Z,0.00
2018-03-27T01:31:17.366Z,0.00
2018-03-27T01:32:17.533Z,0.00
2018-03-27T01:33:17.700Z,0.00
2018-03-27T01:34:17.869Z,0.00
2018-03-27T01:35:18.028Z,0.00
2018-03-27T01:36:18.190Z,0.00
2018-03-27T01:37:18.362Z,0.00
2018-03-27T01:38:18.521Z,0.00
2018-03-27T01:39:18.682Z,0.00
2018-03-27T01:40:18.841Z,0.00
2018-03-27T01:41:19.002Z,0.00
2018-03-27T01:42:19.159Z,0.00
2018-03-27T01:43:19.325Z,0.00
2018-03-27T01:44:19.494Z,0.00
2018-03-27T01:45:19.653Z,0.00
2018-03-27T01:46:19.825Z,0.00
2018-03-27T01:47:19.995Z,0.00
2018-03-27T01:48:20.168Z,0.00
2018-03-27T01:49:20.327Z,0.00
2018-03-27T01:50:35.143Z,0.00
2018-03-27T01:51:20.668Z,0.00
2018-03-27T01:52:20.824Z,0.00
2018-03-27T01:53:20.988Z,0.00
2018-03-27T01:54:21.142Z,0.00
2018-03-27T01:55:21.313Z,0.00
2018-03-27T01:56:21.493Z,0.00
2018-03-27T01:57:43.645Z,0.00
2018-03-27T01:58:21.784Z,0.00
2018-03-27T01:59:21.955Z,0.00
2018-03-27T02:00:22.093Z,0.00
2018-03-27T02:01:43.471Z,0.00
2018-03-27T02:02:22.784Z,0.00
2018-03-27T02:03:22.800Z,0.00
2018-03-27T02:04:50.911Z,0.00
2018-03-27T02:05:23.272Z,0.00
2018-03-27T02:06:30.195Z,0.00
2018-03-27T02:08:55.697Z,0.00
2018-03-27T02:09:55.880Z,0.00
2018-03-27T02:10:56.062Z,0.00
2018-03-27T02:11:56.200Z,0.00
2018-03-27T02:12:56.419Z,0.00
2018-03-27T02:13:56.041Z,0.00
2018-03-27T02:14:56.205Z,0.00
2018-03-27T02:15:56.416Z,0.00
2018-03-27T02:16:56.533Z,0.00
2018-03-27T02:17:56.693Z,0.00
2018-03-27T02:18:56.861Z,0.00
2018-03-27T02:19:57.038Z,0.00
2018-03-27T02:20:57.195Z,0.00
2018-03-27T02:21:57.354Z,0.00
2018-03-27T02:22:57.520Z,0.00
2018-03-27T02:23:58.644Z,0.00
2018-03-27T02:24:58.642Z,0.00
2018-03-27T02:25:58.008Z,0.00
2018-03-27T02:26:58.170Z,0.00
2018-03-27T02:27:58.332Z,0.00
2018-03-27T02:28:58.490Z,0.00
2018-03-27T02:29:58.651Z,0.00
2018-03-27T02:30:58.814Z,0.00
2018-03-27T02:31:58.973Z,0.00
2018-03-27T02:32:59.135Z,0.00
2018-03-27T02:33:59.318Z,0.00
2018-03-27T02:34:59.461Z,0.00
2018-03-27T02:35:59.629Z,0.00
2018-03-27T02:36:59.785Z,0.00
2018-03-27T02:37:59.948Z,0.00
2018-03-27T02:39:00.111Z,0.00
2018-03-27T02:40:00.273Z,0.00
2018-03-27T02:41:00.434Z,0.00
2018-03-27T02:42:00.595Z,0.00
2018-03-27T02:43:00.767Z,0.00
2018-03-27T02:44:00.922Z,0.00
2018-03-27T02:45:01.084Z,0.00
2018-03-27T02:46:01.608Z,0.00
2018-03-27T02:47:01.814Z,0.00
2018-03-27T02:48:01.968Z,0.00
2018-03-27T02:49:02.172Z,0.00
2018-03-27T02:50:02.351Z,0.00
2018-03-27T02:51:02.572Z,0.00
2018-03-27T02:52:02.789Z,0.00
2018-03-27T02:53:02.974Z,0.00
2018-03-27T02:54:02.766Z,0.00
2018-03-27T02:55:02.929Z,0.00
2018-03-27T02:56:03.089Z,0.00
2018-03-27T02:57:03.251Z,0.00
2018-03-27T02:58:03.411Z,0.00
2018-03-27T02:59:03.578Z,0.00
2018-03-27T03:00:03.736Z,0.00
2018-03-27T03:01:03.895Z,0.00
2018-03-27T03:02:04.071Z,0.00
2018-03-27T03:03:04.230Z,0.00
2018-03-27T03:04:04.392Z,0.00
2018-03-27T03:05:04.550Z,0.00
2018-03-27T03:06:04.712Z,0.00
2018-03-27T03:07:04.872Z,0.00
2018-03-27T03:08:05.036Z,0.00
2018-03-27T03:09:05.198Z,0.00
2018-03-27T03:10:05.360Z,0.00
2018-03-27T03:11:05.522Z,0.00
2018-03-27T03:12:05.690Z,0.00
2018-03-27T03:13:05.843Z,0.00
2018-03-27T03:14:06.010Z,0.00
2018-03-27T03:15:06.170Z,0.00
2018-03-27T03:16:06.331Z,0.00
2018-03-27T03:17:06.490Z,0.00
2018-03-27T03:18:06.654Z,0.00
2018-03-27T03:19:06.864Z,0.00
2018-03-27T03:20:06.984Z,0.00
2018-03-27T03:21:07.142Z,0.00
2018-03-27T03:22:07.304Z,0.00
2018-03-27T03:23:07.476Z,0.00
2018-03-27T03:24:07.636Z,0.00
2018-03-27T03:25:07.800Z,0.00
2018-03-27T03:26:07.958Z,0.00
2018-03-27T03:27:08.119Z,0.00
2018-03-27T03:28:08.283Z,0.00
2018-03-27T03:29:08.447Z,0.00
2018-03-27T03:30:08.609Z,0.00
2018-03-27T03:31:08.774Z,0.00
2018-03-27T03:32:08.931Z,0.00
2018-03-27T03:33:09.098Z,0.00
2018-03-27T03:34:09.259Z,0.00
2018-03-27T03:35:09.416Z,0.00
2018-03-27T03:36:10.009Z,0.00
2018-03-27T03:37:10.135Z,0.00
2018-03-27T03:38:10.276Z,0.00
2018-03-27T03:39:10.026Z,0.00
2018-03-27T03:40:10.189Z,0.00
2018-03-27T03:41:10.493Z,0.00
2018-03-27T03:42:10.508Z,0.00
2018-03-27T03:43:10.700Z,0.00
2018-03-27T03:44:11.059Z,0.00
2018-03-27T03:45:10.945Z,0.00
2018-03-27T03:46:11.302Z,0.00
2018-03-27T03:47:11.403Z,0.00
2018-03-27T03:48:11.591Z,0.00
2018-03-27T03:49:11.841Z,0.00
2018-03-27T03:50:11.948Z,0.00
2018-03-27T03:51:11.848Z,0.00
2018-03-27T03:52:12.006Z,0.00
2018-03-27T03:53:12.180Z,0.00
2018-03-27T03:54:12.338Z,0.00
2018-03-27T03:55:12.498Z,0.00
2018-03-27T03:56:12.663Z,0.00
2018-03-27T03:57:12.825Z,0.00
2018-03-27T03:58:12.983Z,0.00
2018-03-27T03:59:13.146Z,0.00
2018-03-27T04:00:13.310Z,0.00
2018-03-27T04:01:13.470Z,0.00
2018-03-27T04:02:13.632Z,0.00
2018-03-27T04:03:13.792Z,0.00
2018-03-27T04:04:13.957Z,0.00
2018-03-27T04:05:14.113Z,0.00
2018-03-27T04:06:14.278Z,0.00
2018-03-27T04:07:14.439Z,0.00
2018-03-27T04:08:14.609Z,0.00
2018-03-27T04:09:14.767Z,0.00
2018-03-27T04:10:14.949Z,0.00
2018-03-27T04:11:15.088Z,0.00
2018-03-27T04:12:15.248Z,0.00
2018-03-27T04:13:15.413Z,0.00
2018-03-27T04:14:15.580Z,0.00
2018-03-27T04:15:15.755Z,0.00
2018-03-27T04:16:15.915Z,0.00
2018-03-27T04:17:16.080Z,0.00
2018-03-27T04:18:16.242Z,0.00
2018-03-27T04:19:16.398Z,0.00
2018-03-27T04:20:16.562Z,0.00
2018-03-27T04:21:16.721Z,0.00
2018-03-27T04:22:16.891Z,0.00
2018-03-27T04:23:17.060Z,0.00
2018-03-27T04:24:17.218Z,0.00
2018-03-27T04:25:17.385Z,0.00
2018-03-27T04:26:17.551Z,0.00
2018-03-27T04:27:17.724Z,0.00
2018-03-27T04:28:18.739Z,0.00
2018-03-27T04:29:18.028Z,0.00
2018-03-27T04:30:18.188Z,0.00
2018-03-27T04:31:18.352Z,0.00
2018-03-27T04:32:18.514Z,0.00
2018-03-27T04:33:18.675Z,0.00
2018-03-27T04:34:18.839Z,0.00
2018-03-27T04:35:19.002Z,0.00
2018-03-27T04:36:19.165Z,0.00
2018-03-27T04:37:19.332Z,0.00
2018-03-27T04:38:19.496Z,0.00
2018-03-27T04:39:19.662Z,0.00
2018-03-27T04:40:19.819Z,0.00
2018-03-27T04:41:19.982Z,0.00
2018-03-27T04:42:20.145Z,0.00
2018-03-27T04:43:20.305Z,0.00
2018-03-27T04:44:20.472Z,0.00
2018-03-27T04:45:20.640Z,0.00
2018-03-27T04:46:20.798Z,0.00
2018-03-27T04:47:20.961Z,0.00
2018-03-27T04:48:21.120Z,0.00
2018-03-27T04:49:21.276Z,4.00
2018-03-27T04:50:21.444Z,0.00
2018-03-27T04:51:21.613Z,4.00
2018-03-27T04:52:21.765Z,4.00
2018-03-27T04:53:21.926Z,8.00
2018-03-27T04:54:22.092Z,8.00
2018-03-27T04:55:22.254Z,12.00
2018-03-27T04:56:22.420Z,12.00
2018-03-27T04:57:22.581Z,16.00
2018-03-27T04:58:22.744Z,16.00
2018-03-27T04:59:22.909Z,20.00
2018-03-27T05:00:23.073Z,24.00
2018-03-27T05:01:23.236Z,28.00
2018-03-27T05:02:23.412Z,36.00
2018-03-27T05:03:23.565Z,36.00
2018-03-27T05:04:23.731Z,40.00
2018-03-27T05:05:23.890Z,40.00
2018-03-27T05:06:24.050Z,40.00
2018-03-27T05:07:24.208Z,36.00
2018-03-27T05:08:24.376Z,36.00
2018-03-27T05:09:24.529Z,44.00
2018-03-27T05:10:24.709Z,56.00
2018-03-27T05:11:24.879Z,64.00
2018-03-27T05:12:25.042Z,68.00
2018-03-27T05:13:25.204Z,80.00
2018-03-27T05:14:25.371Z,92.00
2018-03-27T05:15:25.538Z,96.00
2018-03-27T05:16:25.703Z,104.00
2018-03-27T05:17:25.861Z,108.00
2018-03-27T05:18:26.023Z,108.00
2018-03-27T05:19:26.190Z,112.00
2018-03-27T05:20:26.355Z,120.00
2018-03-27T05:21:26.520Z,116.00
2018-03-27T05:22:26.689Z,120.00
2018-03-27T05:23:26.850Z,124.00
2018-03-27T05:24:27.021Z,136.00
2018-03-27T05:25:27.185Z,152.00
2018-03-27T05:26:27.399Z,164.00
2018-03-27T05:27:27.519Z,172.00
2018-03-27T05:28:27.668Z,180.00
2018-03-27T05:29:27.829Z,196.00
2018-03-27T05:30:27.992Z,208.00
2018-03-27T05:31:28.158Z,220.00
2018-03-27T05:32:28.324Z,236.00
2018-03-27T05:33:28.539Z,252.00
2018-03-27T05:34:29.027Z,272.00
2018-03-27T05:35:29.250Z,288.00
2018-03-27T05:36:29.280Z,292.00
2018-03-27T05:37:29.432Z,288.00
2018-03-27T05:38:29.618Z,296.00
2018-03-27T05:39:29.779Z,340.00
2018-03-27T05:40:29.958Z,408.00
2018-03-27T05:41:30.164Z,496.00
2018-03-27T05:42:30.283Z,560.00
2018-03-27T05:43:30.063Z,620.00
2018-03-27T05:44:30.224Z,676.00
2018-03-27T05:45:30.388Z,728.00
2018-03-27T05:46:30.549Z,784.00
2018-03-27T05:47:30.709Z,844.00
2018-03-27T05:48:30.870Z,904.00
2018-03-27T05:49:31.034Z,952.00
2018-03-27T05:50:31.193Z,996.00
2018-03-27T05:51:31.363Z,1048.00
2018-03-27T05:52:31.522Z,1104.00
2018-03-27T05:53:31.682Z,1152.00
2018-03-27T05:54:31.841Z,1192.00
2018-03-27T05:55:32.015Z,1220.00
2018-03-27T05:56:32.178Z,1272.00
2018-03-27T05:57:32.337Z,1320.00
2018-03-27T05:58:32.501Z,1336.00
2018-03-27T05:59:32.670Z,1372.00
2018-03-27T06:00:32.835Z,1384.00
2018-03-27T06:01:33.012Z,1416.00
2018-03-27T06:02:33.171Z,1456.00
2018-03-27T06:03:33.341Z,1528.00
2018-03-27T06:04:33.509Z,1628.00
2018-03-27T06:05:33.659Z,1704.00
2018-03-27T06:06:33.881Z,1744.00
2018-03-27T06:07:33.936Z,1752.00
2018-03-27T06:08:34.101Z,1768.00
2018-03-27T06:09:34.261Z,1808.00
2018-03-27T06:10:34.423Z,1860.00
2018-03-27T06:11:34.592Z,1944.00
2018-03-27T06:12:35.257Z,2044.00
2018-03-27T06:13:36.751Z,2160.00
2018-03-27T06:14:35.043Z,2332.00
2018-03-27T06:15:35.205Z,2496.00
2018-03-27T06:16:35.368Z,2608.00
2018-03-27T06:17:36.250Z,2656.00
2018-03-27T06:18:35.659Z,2656.00
2018-03-27T06:19:37.754Z,2616.00
2018-03-27T06:20:36.044Z,2552.00
2018-03-27T06:21:36.204Z,2660.00
2018-03-27T06:22:36.432Z,2644.00
2018-03-27T06:23:36.461Z,2504.00
2018-03-27T06:24:36.621Z,2484.00
2018-03-27T06:25:36.776Z,2476.00
2018-03-27T06:26:36.944Z,2524.00
2018-03-27T06:27:37.325Z,2656.00
2018-03-27T06:28:37.333Z,2836.00
2018-03-27T06:29:37.487Z,2940.00
2018-03-27T06:30:37.672Z,2924.00
2018-03-27T06:31:37.836Z,2876.00
2018-03-27T06:32:38.026Z,2856.00
2018-03-27T06:33:38.162Z,2924.00
2018-03-27T06:34:38.316Z,3012.00
2018-03-27T06:35:38.486Z,3004.00
2018-03-27T06:36:38.649Z,2964.00
2018-03-27T06:37:38.810Z,2884.00
2018-03-27T06:38:38.986Z,2868.00
2018-03-27T06:39:39.136Z,2972.00
2018-03-27T06:40:39.303Z,3076.00
2018-03-27T06:41:39.463Z,3244.00
2018-03-27T06:42:39.653Z,3416.00
2018-03-27T06:43:39.776Z,3524.00
2018-03-27T06:44:39.946Z,3592.00
2018-03-27T06:45:40.758Z,3756.00
2018-03-27T06:46:40.398Z,3944.00
2018-03-27T06:47:40.455Z,3748.00
2018-03-27T06:48:40.614Z,4452.00
2018-03-27T06:49:41.312Z,4296.00
2018-03-27T06:50:41.056Z,4144.00
2018-03-27T06:51:46.076Z,4244.00
2018-03-27T06:52:41.434Z,3616.00
2018-03-27T06:53:41.449Z,4224.00
2018-03-27T06:54:41.872Z,3224.00
2018-03-27T06:55:44.996Z,3160.00
2018-03-27T06:56:42.339Z,3112.00
2018-03-27T06:57:42.151Z,3164.00
2018-03-27T06:58:42.324Z,3232.00
2018-03-27T06:59:42.492Z,3352.00
2018-03-27T07:00:42.661Z,3364.00
2018-03-27T07:01:42.815Z,3408.00
2018-03-27T07:02:42.974Z,3480.00
2018-03-27T07:03:43.148Z,3956.00
2018-03-27T07:04:43.358Z,3772.00
2018-03-27T07:05:43.509Z,3824.00
2018-03-27T07:06:43.616Z,3924.00
2018-03-27T07:07:43.775Z,4428.00
2018-03-27T07:08:43.944Z,5272.00
2018-03-27T07:09:44.116Z,5740.00
2018-03-27T07:10:44.270Z,5556.00
2018-03-27T07:11:44.441Z,5952.00
2018-03-27T07:12:44.581Z,6140.00
2018-03-27T07:13:44.737Z,6192.00
2018-03-27T07:14:44.916Z,6272.00
2018-03-27T07:15:45.074Z,6192.00
2018-03-27T07:16:45.253Z,6264.00
2018-03-27T07:17:45.390Z,6408.00
2018-03-27T07:18:45.551Z,6284.00
2018-03-27T07:19:45.707Z,5788.00
2018-03-27T07:20:45.856Z,6156.00
2018-03-27T07:21:46.015Z,6036.00
2018-03-27T07:22:46.174Z,5092.00
2018-03-27T07:23:46.338Z,5064.00
2018-03-27T07:24:46.510Z,6228.00
2018-03-27T07:25:46.644Z,4972.00
2018-03-27T07:26:46.827Z,4940.00
2018-03-27T07:27:46.970Z,5444.00
2018-03-27T07:28:47.144Z,6756.00
2018-03-27T07:29:47.302Z,6024.00
2018-03-27T07:30:47.475Z,7244.00
2018-03-27T07:31:47.627Z,7460.00
2018-03-27T07:32:47.783Z,7704.00
2018-03-27T07:33:47.942Z,8056.00
2018-03-27T07:34:48.112Z,8280.00
2018-03-27T07:35:48.262Z,8260.00
2018-03-27T07:36:48.432Z,8092.00
2018-03-27T07:37:48.603Z,8160.00
2018-03-27T07:38:48.757Z,8332.00
2018-03-27T07:39:49.107Z,8480.00
2018-03-27T07:40:49.146Z,8636.00
2018-03-27T07:41:49.676Z,8732.00
2018-03-27T07:42:49.456Z,8708.00
2018-03-27T07:43:49.626Z,8504.00
2018-03-27T07:44:49.794Z,8368.00
2018-03-27T07:45:49.964Z,8188.00
2018-03-27T07:46:50.130Z,8192.00
2018-03-27T07:47:50.329Z,8168.00
2018-03-27T07:48:50.497Z,8160.00
2018-03-27T07:49:50.666Z,8200.00
2018-03-27T07:50:50.872Z,8244.00
2018-03-27T07:51:50.999Z,8196.00
2018-03-27T07:52:51.772Z,8144.00
2018-03-27T07:53:51.318Z,8148.00
2018-03-27T07:54:52.284Z,8164.00
2018-03-27T07:55:52.290Z,8052.00
2018-03-27T07:56:51.836Z,8036.00
2018-03-27T07:57:52.775Z,8064.00
2018-03-27T07:58:52.188Z,8144.00
2018-03-27T07:59:52.354Z,8168.00
2018-03-27T08:00:52.522Z,8240.00
2018-03-27T08:01:52.692Z,8372.00
2018-03-27T08:02:52.858Z,8532.00
2018-03-27T08:03:53.021Z,8684.00
2018-03-27T08:04:53.194Z,8852.00
2018-03-27T08:05:53.359Z,9068.00
2018-03-27T08:06:53.534Z,9296.00
2018-03-27T08:07:53.702Z,9672.00
2018-03-27T08:08:53.867Z,10072.00
2018-03-27T08:09:54.035Z,10428.00
2018-03-27T08:10:54.207Z,10712.00
2018-03-27T08:11:54.375Z,10948.00
2018-03-27T08:12:54.546Z,11280.00
2018-03-27T08:13:54.706Z,11868.00
2018-03-27T08:14:54.890Z,12780.00
2018-03-27T08:15:55.062Z,14320.00
2018-03-27T08:16:55.226Z,14708.00
2018-03-27T08:17:55.394Z,15244.00
2018-03-27T08:18:55.582Z,15208.00
2018-03-27T08:19:55.758Z,15808.00
2018-03-27T08:20:55.954Z,15936.00
2018-03-27T08:21:56.114Z,12608.00
2018-03-27T08:22:56.287Z,11928.00
2018-03-27T08:23:56.532Z,11420.00
2018-03-27T08:24:56.625Z,11036.00
2018-03-27T08:25:56.807Z,13168.00
2018-03-27T08:26:56.969Z,10736.00
2018-03-27T08:27:57.133Z,10604.00
2018-03-27T08:28:57.305Z,11808.00
2018-03-27T08:29:57.471Z,12432.00
2018-03-27T08:30:57.632Z,9744.00
2018-03-27T08:31:58.774Z,9612.00
2018-03-27T08:32:57.939Z,9600.00
2018-03-27T08:33:58.106Z,9984.00
2018-03-27T08:34:58.271Z,15624.00
2018-03-27T08:35:58.438Z,11092.00
2018-03-27T08:36:58.612Z,10188.00
2018-03-27T08:37:59.282Z,13852.00
2018-03-27T08:38:59.709Z,15236.00
2018-03-27T08:39:59.110Z,15124.00
2018-03-27T08:40:59.272Z,15416.00
2018-03-27T08:41:59.440Z,15248.00
2018-03-27T08:42:59.621Z,10876.00
2018-03-27T08:43:59.791Z,16992.00
2018-03-27T08:44:59.990Z,16384.00
2018-03-27T08:46:00.143Z,12016.00
2018-03-27T08:47:00.318Z,11408.00
2018-03-27T08:48:00.495Z,18016.00
2018-03-27T08:49:00.673Z,14752.00
2018-03-27T08:50:01.787Z,18688.00
2018-03-27T08:51:01.832Z,18336.00
2018-03-27T08:52:01.209Z,16352.00
2018-03-27T08:53:01.249Z,16608.00
2018-03-27T08:54:02.285Z,16832.00
2018-03-27T08:55:01.584Z,16352.00
2018-03-27T08:56:02.296Z,14636.00
2018-03-27T08:57:02.108Z,16056.00
2018-03-27T08:58:02.277Z,16480.00
2018-03-27T08:59:17.448Z,17184.00
2018-03-27T09:00:26.538Z,17472.00
2018-03-27T09:01:02.757Z,17024.00
2018-03-27T09:02:02.911Z,15732.00
2018-03-27T09:03:03.042Z,17504.00
2018-03-27T09:04:03.217Z,17536.00
2018-03-27T09:05:03.398Z,16768.00
2018-03-27T09:06:03.722Z,15144.00
2018-03-27T09:07:03.848Z,17792.00
2018-03-27T09:08:03.887Z,18048.00
2018-03-27T09:09:04.074Z,18176.00
2018-03-27T09:10:04.228Z,18016.00
2018-03-27T09:11:04.604Z,18112.00
2018-03-27T09:12:04.777Z,18656.00
2018-03-27T09:13:05.233Z,18624.00
2018-03-27T09:14:04.881Z,19488.00
2018-03-27T09:15:05.048Z,20032.00
2018-03-27T09:16:05.220Z,20320.00
2018-03-27T09:17:05.392Z,20448.00
2018-03-27T09:18:05.671Z,20448.00
2018-03-27T09:19:06.094Z,18592.00
2018-03-27T09:20:06.293Z,20224.00
2018-03-27T09:21:06.546Z,19264.00
2018-03-27T09:22:06.347Z,14080.00
2018-03-27T09:23:06.417Z,19840.00
2018-03-27T09:24:06.596Z,18912.00
2018-03-27T09:25:07.061Z,16364.00
2018-03-27T09:26:07.243Z,18272.00
2018-03-27T09:27:07.331Z,21088.00
2018-03-27T09:28:07.457Z,18432.00
2018-03-27T09:29:07.547Z,23680.00
2018-03-27T09:30:07.936Z,22464.00
2018-03-27T09:31:08.179Z,18112.00
2018-03-27T09:32:08.091Z,13508.00
2018-03-27T09:33:08.375Z,11160.00
2018-03-27T09:34:08.683Z,10316.00
2018-03-27T09:35:09.220Z,10296.00
2018-03-27T09:36:08.821Z,9864.00
2018-03-27T09:37:08.865Z,9704.00
2018-03-27T09:38:09.054Z,9232.00
2018-03-27T09:39:09.254Z,9344.00
2018-03-27T09:40:09.447Z,9628.00
2018-03-27T09:41:09.653Z,17760.00
2018-03-27T09:42:09.841Z,8464.00
2018-03-27T09:43:10.015Z,7924.00
2018-03-27T09:44:10.184Z,7660.00
2018-03-27T09:45:10.364Z,7612.00
2018-03-27T09:46:10.534Z,7540.00
2018-03-27T09:47:10.702Z,7512.00
2018-03-27T09:48:10.882Z,7440.00
2018-03-27T09:49:11.076Z,7120.00
2018-03-27T09:50:11.327Z,6500.00
2018-03-27T09:51:11.503Z,6224.00
2018-03-27T09:52:11.661Z,6188.00
2018-03-27T09:53:11.830Z,6244.00
2018-03-27T09:54:11.998Z,6508.00
2018-03-27T09:55:12.182Z,6896.00
2018-03-27T09:56:12.344Z,7108.00
2018-03-27T09:57:12.517Z,7336.00
2018-03-27T09:58:12.688Z,7652.00
2018-03-27T09:59:12.858Z,7940.00
2018-03-27T10:00:13.031Z,8212.00
2018-03-27T10:01:13.203Z,8396.00
2018-03-27T10:02:13.377Z,8508.00
2018-03-27T10:03:13.530Z,8608.00
2018-03-27T10:04:13.701Z,8852.00
2018-03-27T10:05:13.873Z,9392.00
2018-03-27T10:06:14.049Z,9932.00
2018-03-27T10:08:07.355Z,11600.00
2018-03-27T10:09:06.524Z,12748.00
2018-03-27T10:10:06.977Z,14304.00
2018-03-27T10:11:07.020Z,15564.00
2018-03-27T10:12:07.044Z,25248.00
2018-03-27T10:13:07.455Z,15436.00
2018-03-27T10:14:07.641Z,16880.00
2018-03-27T10:15:08.270Z,28000.00
2018-03-27T10:16:09.266Z,16432.00
2018-03-27T10:17:08.376Z,18464.00
2018-03-27T10:18:08.066Z,17388.00
2018-03-27T10:19:09.694Z,17684.00
2018-03-27T10:20:08.586Z,28704.00
2018-03-27T10:21:09.272Z,15600.00
2018-03-27T10:22:09.432Z,15736.00
2018-03-27T10:23:09.630Z,27808.00
2018-03-27T10:24:09.830Z,28672.00
2018-03-27T10:25:09.589Z,27936.00
2018-03-27T10:26:09.643Z,16416.00
2018-03-27T10:27:09.661Z,16020.00
2018-03-27T10:28:09.792Z,28896.00
2018-03-27T10:29:11.003Z,15816.00
2018-03-27T10:30:10.204Z,18752.00
2018-03-27T10:31:10.356Z,16172.00
2018-03-27T10:32:10.518Z,16696.00
2018-03-27T10:33:10.704Z,17228.00
2018-03-27T10:34:10.876Z,26816.00
2018-03-27T10:35:11.055Z,24352.00
2018-03-27T10:36:11.223Z,31520.00
2018-03-27T10:37:11.400Z,17104.00
2018-03-27T10:38:11.569Z,15428.00
2018-03-27T10:39:11.767Z,15144.00
2018-03-27T10:40:11.948Z,15328.00
2018-03-27T10:41:12.084Z,13936.00
2018-03-27T10:42:12.260Z,14116.00
2018-03-27T10:43:12.531Z,15360.00
2018-03-27T10:44:12.612Z,16944.00
2018-03-27T10:45:12.792Z,18656.00
2018-03-27T10:46:12.965Z,18560.00
2018-03-27T10:47:13.155Z,26720.00
2018-03-27T10:48:13.329Z,17940.00
2018-03-27T10:49:13.522Z,17284.00
2018-03-27T10:50:13.689Z,24992.00
2018-03-27T10:51:13.860Z,34944.00
2018-03-27T10:52:14.045Z,25280.00
2018-03-27T10:53:14.205Z,64864.00
2018-03-27T10:54:14.384Z,77120.00
2018-03-27T10:55:14.554Z,93216.00
2018-03-27T10:56:14.741Z,97728.00
2018-03-27T10:57:14.908Z,43392.00
2018-03-27T10:58:15.086Z,102688.00
2018-03-27T10:59:15.265Z,18156.00
2018-03-27T11:00:15.439Z,18140.00
2018-03-27T11:01:15.620Z,17680.00
2018-03-27T11:02:15.793Z,103040.00
2018-03-27T11:03:15.964Z,67168.00
2018-03-27T11:04:16.219Z,27104.00
2018-03-27T11:05:16.274Z,57280.00
2018-03-27T11:06:16.454Z,36576.00
2018-03-27T11:07:16.626Z,32480.00
2018-03-27T11:08:16.809Z,28032.00
2018-03-27T11:09:16.997Z,113056.00
2018-03-27T11:10:17.171Z,112416.00
2018-03-27T11:11:17.347Z,69920.00
2018-03-27T11:12:17.527Z,107296.00
2018-03-27T11:13:17.709Z,105696.00
2018-03-27T11:14:17.894Z,73824.00
2018-03-27T11:15:18.070Z,33280.00
2018-03-27T11:16:18.252Z,75200.00
2018-03-27T11:17:18.442Z,94720.00
2018-03-27T11:18:18.632Z,105088.00
2018-03-27T11:19:18.813Z,74112.00
2018-03-27T11:20:19.010Z,52352.00
2018-03-27T11:21:19.177Z,101664.00
2018-03-27T11:22:19.360Z,108896.00
2018-03-27T11:23:19.556Z,23776.00
2018-03-27T11:24:19.741Z,49248.00
2018-03-27T11:25:19.924Z,113632.00
2018-03-27T11:26:20.100Z,108544.00
2018-03-27T11:27:20.271Z,114560.00
2018-03-27T11:28:20.472Z,121920.00
2018-03-27T11:29:20.645Z,118528.00
2018-03-27T11:30:20.828Z,29408.00
2018-03-27T11:31:21.020Z,26688.00
2018-03-27T11:32:21.202Z,21248.00
2018-03-27T11:33:21.381Z,69600.00
2018-03-27T11:34:21.580Z,45216.00
2018-03-27T11:35:21.762Z,29600.00
2018-03-27T11:36:21.946Z,17632.00
2018-03-27T11:37:22.133Z,16332.00
2018-03-27T11:38:22.315Z,21632.00
2018-03-27T11:39:22.505Z,26272.00
2018-03-27T11:40:22.696Z,117280.00
2018-03-27T11:41:22.879Z,119328.00
2018-03-27T11:42:23.794Z,117664.00
2018-03-27T11:43:23.231Z,109664.00
2018-03-27T11:44:23.418Z,35680.00
2018-03-27T11:45:23.598Z,20000.00
2018-03-27T11:46:23.781Z,20704.00
2018-03-27T11:49:00.664Z,14024.00
2018-03-27T11:50:00.548Z,13476.00
2018-03-27T11:51:01.060Z,15240.00
2018-03-27T11:52:00.189Z,19616.00
2018-03-27T11:53:00.551Z,19360.00
2018-03-27T11:54:01.111Z,109344.00
2018-03-27T11:55:04.061Z,21728.00
2018-03-27T11:56:03.574Z,14612.00
2018-03-27T11:57:01.552Z,13296.00
2018-03-27T11:58:01.783Z,14328.00
2018-03-27T11:59:02.077Z,83680.00
2018-03-27T12:00:03.052Z,19648.00
2018-03-27T12:01:02.064Z,16268.00
2018-03-27T12:02:04.631Z,13452.00
2018-03-27T12:03:03.074Z,13844.00
2018-03-27T12:04:03.059Z,17024.00
2018-03-27T12:05:02.229Z,11248.00
2018-03-27T12:06:03.051Z,9408.00
2018-03-27T12:07:02.662Z,8012.00
2018-03-27T12:08:03.598Z,6696.00
2018-03-27T12:09:03.549Z,6124.00
2018-03-27T12:10:05.069Z,5920.00
2018-03-27T12:11:04.561Z,6212.00
2018-03-27T12:12:04.062Z,7032.00
2018-03-27T12:13:04.556Z,8200.00
2018-03-27T12:14:03.846Z,8808.00
2018-03-27T12:15:05.585Z,9924.00
2018-03-27T12:16:05.114Z,11668.00
2018-03-27T12:17:28.647Z,30720.00
2018-03-27T12:18:04.398Z,18464.00
2018-03-27T12:19:04.598Z,25312.00
2018-03-27T12:20:04.768Z,26368.00
2018-03-27T12:21:04.940Z,28544.00
2018-03-27T12:22:05.102Z,25952.00
2018-03-27T12:23:05.282Z,25792.00
2018-03-27T12:24:05.459Z,19520.00
2018-03-27T12:25:05.630Z,17696.00
2018-03-27T12:26:05.808Z,19552.00
2018-03-27T12:27:05.982Z,15828.00
2018-03-27T12:28:06.163Z,16752.00
2018-03-27T12:29:06.329Z,22016.00
2018-03-27T12:30:06.515Z,23648.00
2018-03-27T12:31:06.688Z,23360.00
2018-03-27T12:32:06.910Z,25376.00
2018-03-27T12:33:07.031Z,24992.00